Time;durP1;ratioP1;P1;durP2;ratioP2;P2;SDS_P1;SDS_P2;PMS_P1;PMS_P2;Temp;Humidity;BMP_temperature;BMP_pressure;BME280_temperature;BME280_humidity;BME280_pressure;Samples;Min_cycle;Max_cycle;Signal;HPM_P1;HPM_P2
2022/05/01 00:02:25;;;;;;;11.67;10.13;;;9.20;99.90;;;;;;5083503;28;20048;-45
2022/05/01 00:04:51;;;;;;;11.77;9.80;;;9.30;99.90;;;;;;5091289;28;20047;-44
2022/05/01 00:07:16;;;;;;;11.18;9.48;;;9.20;99.90;;;;;;5074602;28;20045;-46
2022/05/01 00:09:42;;;;;;;13.90;10.27;;;9.20;99.90;;;;;;5085765;28;20382;-45
2022/05/01 00:12:08;;;;;;;17.13;10.27;;;9.20;99.90;;;;;;5075792;28;20032;-45
2022/05/01 00:14:35;;;;;;;11.68;10.48;;;9.20;99.90;;;;;;5085724;28;20051;-48
2022/05/01 00:17:01;;;;;;;;;;;9.20;99.90;;;;;;5082338;28;20047;-49
2022/05/01 00:19:26;;;;;;;14.68;10.85;;;9.10;99.90;;;;;;5091695;28;19920;-47
2022/05/01 00:21:52;;;;;;;15.40;10.67;;;9.10;99.90;;;;;;5089958;28;20116;-48
2022/05/01 00:24:17;;;;;;;12.60;10.13;;;9.10;99.90;;;;;;5092072;28;20442;-48
2022/05/01 00:26:43;;;;;;;11.43;9.43;;;9.10;99.90;;;;;;5084191;28;20040;-47
2022/05/01 00:29:08;;;;;;;12.37;10.37;;;9.10;99.90;;;;;;5071064;28;20225;-48
2022/05/01 00:31:34;;;;;;;14.13;9.87;;;9.00;99.90;;;;;;5071387;28;20076;-47
2022/05/01 00:36:43;;;;;;;12.68;9.35;;;9.00;99.90;;;;;;5074824;28;20036;-46
2022/05/01 00:39:09;;;;;;;13.20;10.43;;;9.00;99.90;;;;;;5072087;28;20036;-48
2022/05/01 00:41:37;;;;;;;14.00;10.23;;;9.00;99.90;;;;;;5072043;28;20324;-45
2022/05/01 00:44:08;;;;;;;12.88;10.75;;;9.10;99.90;;;;;;5071491;28;20114;-45
2022/05/01 00:46:35;;;;;;;15.18;11.52;;;9.00;99.90;;;;;;5084140;28;20039;-44
2022/05/01 00:49:01;;;;;;;;;;;9.00;99.90;;;;;;5083342;28;20253;-45
2022/05/01 00:51:30;;;;;;;11.13;10.00;;;9.00;99.90;;;;;;5091382;28;19927;-44
2022/05/01 00:53:56;;;;;;;13.32;10.02;;;9.00;99.90;;;;;;5074151;28;20062;-44
2022/05/01 00:56:24;;;;;;;17.23;12.15;;;9.00;99.90;;;;;;5070537;28;20094;-46
2022/05/01 00:58:51;;;;;;;14.98;11.18;;;9.00;99.90;;;;;;5076028;28;20766;-45
2022/05/01 01:01:19;;;;;;;13.75;10.23;;;8.90;99.90;;;;;;5091141;28;20063;-45
2022/05/01 01:03:44;;;;;;;12.90;11.23;;;8.90;99.90;;;;;;5076055;28;20497;-45
2022/05/01 01:06:10;;;;;;;15.60;10.93;;;8.90;99.90;;;;;;5070227;28;20041;-44
2022/05/01 01:08:36;;;;;;;15.30;10.05;;;8.90;99.90;;;;;;5077517;28;20959;-44
2022/05/01 01:11:02;;;;;;;17.13;12.25;;;8.90;99.90;;;;;;5086451;28;20036;-44
2022/05/01 01:13:28;;;;;;;14.13;10.52;;;8.90;99.90;;;;;;5070188;28;20037;-45
2022/05/01 01:15:55;;;;;;;12.65;10.82;;;8.90;99.90;;;;;;5070858;28;20089;-44
2022/05/01 01:18:22;;;;;;;14.65;10.70;;;8.90;99.90;;;;;;5090852;28;20050;-46
2022/05/01 01:20:48;;;;;;;15.30;11.10;;;8.90;99.90;;;;;;5079812;28;20054;-46
2022/05/01 01:23:14;;;;;;;14.33;11.43;;;8.90;99.90;;;;;;5074498;28;20549;-46
2022/05/01 01:25:39;;;;;;;13.98;11.05;;;8.90;99.90;;;;;;5069425;28;20036;-46
2022/05/01 01:28:08;;;;;;;14.13;11.02;;;8.90;99.90;;;;;;5069517;28;20101;-44
2022/05/01 01:33:20;;;;;;;21.85;12.25;;;8.80;99.90;;;;;;5079501;28;20048;-45
2022/05/01 01:35:49;;;;;;;14.05;11.10;;;8.80;99.90;;;;;;5069549;28;20493;-46
2022/05/01 01:38:15;;;;;;;14.95;10.13;;;8.80;99.90;;;;;;5071933;28;20035;-44
2022/05/01 01:41:07;;;;;;;16.85;10.82;;;8.80;99.90;;;;;;5080275;28;20040;-45
2022/05/01 01:43:34;;;;;;;13.82;10.63;;;8.80;99.90;;;;;;5074128;28;20066;-45
2022/05/01 01:46:00;;;;;;;13.35;10.93;;;8.80;99.90;;;;;;5087675;28;20115;-46
2022/05/01 01:48:26;;;;;;;14.90;11.25;;;8.80;99.90;;;;;;5090138;28;20047;-46
2022/05/01 01:51:03;;;;;;;12.10;10.75;;;8.80;99.90;;;;;;5083500;28;20076;-46
2022/05/01 01:53:31;;;;;;;13.65;10.13;;;8.80;99.90;;;;;;5070159;28;20068;-46
2022/05/01 01:55:58;;;;;;;35.67;13.95;;;8.70;99.90;;;;;;5069368;28;20071;-46
2022/05/01 01:58:25;;;;;;;15.50;11.20;;;8.70;99.90;;;;;;5070104;28;20047;-45
2022/05/01 02:00:51;;;;;;;12.65;10.75;;;8.70;99.90;;;;;;5069315;28;20101;-45
2022/05/01 02:03:17;;;;;;;17.33;11.05;;;8.70;99.90;;;;;;5069346;28;20052;-46
2022/05/01 02:05:43;;;;;;;18.15;11.70;;;8.70;99.90;;;;;;5071169;28;20073;-44
2022/05/01 02:08:09;;;;;;;17.20;11.60;;;8.60;99.90;;;;;;5069920;28;20041;-47
2022/05/01 02:10:35;;;;;;;20.83;11.98;;;8.60;99.90;;;;;;5069912;28;20452;-45
2022/05/01 02:13:02;;;;;;;18.20;12.00;;;8.60;99.90;;;;;;5067839;28;20501;-44
2022/05/01 02:15:32;;;;;;;21.50;12.25;;;8.60;99.90;;;;;;5083260;28;20055;-45
2022/05/01 02:17:58;;;;;;;14.07;12.43;;;8.60;99.90;;;;;;5089413;28;20047;-45
2022/05/01 02:20:25;;;;;;;15.23;11.93;;;8.60;99.90;;;;;;5077276;28;20059;-44
2022/05/01 02:22:52;;;;;;;13.55;10.93;;;8.60;99.90;;;;;;5075448;28;20071;-46
2022/05/01 02:25:21;;;;;;;16.52;11.70;;;8.60;99.90;;;;;;5069300;28;20051;-45
2022/05/01 02:27:47;;;;;;;12.20;10.32;;;8.60;99.90;;;;;;5069231;28;20040;-44
2022/05/01 02:30:13;;;;;;;15.32;12.52;;;8.60;99.90;;;;;;5078717;28;20148;-46
2022/05/01 02:32:39;;;;;;;19.77;12.50;;;8.50;99.90;;;;;;5078597;28;20086;-46
2022/05/01 02:35:05;;;;;;;14.75;11.05;;;8.50;99.90;;;;;;5069464;28;20105;-44
2022/05/01 02:37:31;;;;;;;14.00;11.60;;;8.50;99.90;;;;;;5082392;28;20047;-45
2022/05/01 02:39:57;;;;;;;18.10;12.05;;;8.50;99.90;;;;;;5083630;28;20339;-45
2022/05/01 02:42:22;;;;;;;13.63;11.90;;;8.50;99.90;;;;;;5070186;28;20132;-45
2022/05/01 02:44:48;;;;;;;12.33;10.10;;;8.50;99.90;;;;;;5077067;28;20047;-45
2022/05/01 02:47:14;;;;;;;14.82;12.05;;;8.50;99.90;;;;;;5070301;28;20044;-45
2022/05/01 02:49:40;;;;;;;16.92;13.27;;;8.50;99.90;;;;;;5069918;28;20040;-44
2022/05/01 02:52:07;;;;;;;17.73;12.65;;;8.50;99.90;;;;;;5070700;28;20387;-44
2022/05/01 02:54:33;;;;;;;;;;;8.50;99.90;;;;;;5069614;28;20406;-49
2022/05/01 02:56:58;;;;;;;13.98;12.38;;;8.50;99.90;;;;;;5085702;28;19969;-46
2022/05/01 02:59:24;;;;;;;16.33;12.05;;;8.40;99.90;;;;;;5089466;28;20040;-45
2022/05/01 03:01:49;;;;;;;16.23;12.67;;;8.40;99.90;;;;;;5074440;28;20081;-45
2022/05/01 03:04:15;;;;;;;17.57;12.47;;;8.40;99.90;;;;;;5070321;28;20047;-45
2022/05/01 03:06:41;;;;;;;16.52;13.13;;;8.40;99.90;;;;;;5068954;28;20040;-44
2022/05/01 03:09:08;;;;;;;17.27;12.53;;;8.40;99.90;;;;;;5075622;28;20041;-46
2022/05/01 03:11:35;;;;;;;35.13;15.23;;;8.40;99.90;;;;;;5068911;28;20078;-44
2022/05/01 03:14:01;;;;;;;14.32;12.75;;;8.40;99.90;;;;;;5070115;28;20043;-45
2022/05/01 03:16:26;;;;;;;15.27;12.00;;;8.40;99.90;;;;;;5068666;28;20808;-46
2022/05/01 03:24:20;;;;;;;15.57;11.18;;;8.40;99.90;;;;;;5075631;28;20040;-45
2022/05/01 03:26:48;;;;;;;16.83;12.20;;;8.40;99.90;;;;;;5071434;28;20390;-44
2022/05/01 03:29:17;;;;;;;19.70;13.82;;;8.40;99.90;;;;;;5072606;28;20044;-45
2022/05/01 03:31:45;;;;;;;15.93;12.52;;;8.40;99.90;;;;;;5072439;28;20033;-45
2022/05/01 03:34:11;;;;;;;19.05;13.30;;;8.40;99.90;;;;;;5081563;28;20048;-44
2022/05/01 03:36:37;;;;;;;16.05;12.77;;;8.40;99.90;;;;;;5076047;28;20209;-44
2022/05/01 03:39:05;;;;;;;17.42;13.75;;;8.40;99.90;;;;;;5072756;28;20532;-44
2022/05/01 03:41:32;;;;;;;17.52;14.38;;;8.30;99.90;;;;;;5071161;28;20048;-46
2022/05/01 03:43:58;;;;;;;17.38;13.77;;;8.30;99.90;;;;;;5078305;28;20032;-45
2022/05/01 03:46:24;;;;;;;17.85;14.90;;;8.30;99.90;;;;;;5080427;28;20040;-44
2022/05/01 03:48:50;;;;;;;16.85;14.07;;;8.30;99.90;;;;;;5072151;28;20119;-44
2022/05/01 03:51:16;;;;;;;;;;;8.20;99.90;;;;;;5072277;28;20094;-48
2022/05/01 03:53:42;;;;;;;19.20;14.93;;;8.20;99.90;;;;;;5074490;28;19920;-44
2022/05/01 03:56:08;;;;;;;19.58;15.45;;;8.20;99.90;;;;;;5088523;28;20028;-44
2022/05/01 03:58:34;;;;;;;16.70;14.00;;;8.20;99.90;;;;;;5072282;28;20071;-46
2022/05/01 04:01:00;;;;;;;24.57;15.00;;;8.20;99.90;;;;;;5071797;28;20480;-46
2022/05/01 04:03:25;;;;;;;18.55;14.45;;;8.20;99.90;;;;;;5091288;28;20317;-44
2022/05/01 04:05:52;;;;;;;17.55;13.75;;;8.20;99.90;;;;;;5090454;28;20220;-44
2022/05/01 04:08:17;;;;;;;15.70;13.88;;;8.20;99.90;;;;;;5090040;28;20108;-47
2022/05/01 04:10:44;;;;;;;18.10;14.05;;;8.20;99.90;;;;;;5092320;28;20309;-46
2022/05/01 04:13:11;;;;;;;20.90;14.07;;;8.10;99.90;;;;;;5075097;28;20049;-46
2022/05/01 04:15:37;;;;;;;16.05;13.38;;;8.10;99.90;;;;;;5075909;28;20035;-45
2022/05/01 04:18:06;;;;;;;15.97;13.27;;;8.10;99.90;;;;;;5077939;28;20036;-45
2022/05/01 04:20:32;;;;;;;18.80;14.30;;;8.20;99.90;;;;;;5071904;28;20033;-44
2022/05/01 04:22:59;;;;;;;15.20;13.60;;;8.20;99.90;;;;;;5070720;28;20086;-45
2022/05/01 04:25:26;;;;;;;;;;;8.20;99.90;;;;;;5072935;28;20044;-44
2022/05/01 04:27:56;;;;;;;18.10;15.07;;;8.20;99.90;;;;;;5085123;28;19947;-45
2022/05/01 04:30:22;;;;;;;19.75;15.30;;;8.20;99.90;;;;;;5071648;28;20036;-45
2022/05/01 04:32:57;;;;;;;17.08;14.20;;;8.20;99.90;;;;;;5091290;28;20039;-45
2022/05/01 04:35:31;;;;;;;19.75;13.63;;;8.20;99.90;;;;;;5080801;28;20036;-45
2022/05/01 04:38:01;;;;;;;16.67;14.50;;;8.20;99.90;;;;;;5072808;28;20516;-45
2022/05/01 04:40:34;;;;;;;17.02;14.30;;;8.30;99.90;;;;;;5092030;28;20039;-45
2022/05/01 04:43:26;;;;;;;18.15;14.05;;;8.30;99.90;;;;;;5086059;28;20102;-44
2022/05/01 04:45:56;;;;;;;15.70;13.68;;;8.30;99.90;;;;;;5090395;28;20035;-46
2022/05/01 04:48:23;;;;;;;18.00;14.55;;;8.30;99.90;;;;;;5084670;28;20060;-45
2022/05/01 04:50:50;;;;;;;17.40;14.48;;;8.30;99.90;;;;;;5091114;28;20409;-45
2022/05/01 04:53:17;;;;;;;19.67;15.02;;;8.30;99.90;;;;;;5072651;28;20041;-45
2022/05/01 04:55:44;;;;;;;18.88;14.85;;;8.30;99.90;;;;;;5070147;28;20190;-44
2022/05/01 04:58:12;;;;;;;24.45;16.77;;;8.30;99.90;;;;;;5070797;28;20029;-45
2022/05/01 05:00:38;;;;;;;23.40;15.15;;;8.30;99.90;;;;;;5087913;28;20103;-44
2022/05/01 05:03:04;;;;;;;20.45;15.02;;;8.30;99.90;;;;;;5075414;28;20047;-45
2022/05/01 05:05:31;;;;;;;19.85;15.82;;;8.30;99.90;;;;;;5069415;28;20036;-45
2022/05/01 05:10:56;;;;;;;20.55;15.40;;;8.30;99.90;;;;;;5023155;28;20472;-45
2022/05/01 05:13:26;;;;;;;21.57;16.20;;;8.30;99.90;;;;;;5078545;28;20048;-46
2022/05/01 05:15:59;;;;;;;20.95;15.63;;;8.30;99.90;;;;;;5070186;28;20383;-46
2022/05/01 05:18:25;;;;;;;20.85;15.98;;;8.30;99.90;;;;;;5070654;28;20044;-45
2022/05/01 05:20:51;;;;;;;23.38;16.45;;;8.30;99.90;;;;;;5080309;28;20036;-44
2022/05/01 05:23:17;;;;;;;21.37;16.00;;;8.30;99.90;;;;;;5090163;28;20044;-45
2022/05/01 05:25:43;;;;;;;20.10;15.48;;;8.30;99.90;;;;;;5072571;28;20249;-46
2022/05/01 05:28:08;;;;;;;23.98;16.42;;;8.40;99.90;;;;;;5070428;28;20437;-46
2022/05/01 05:30:35;;;;;;;22.97;15.13;;;8.30;99.90;;;;;;5070646;28;20107;-46
2022/05/01 05:33:02;;;;;;;18.95;15.82;;;8.40;99.90;;;;;;5068813;28;20052;-45
2022/05/01 05:35:28;;;;;;;23.08;15.73;;;8.40;99.90;;;;;;5080475;28;20090;-45
2022/05/01 05:37:54;;;;;;;18.40;15.48;;;8.40;99.90;;;;;;5069563;28;20036;-46
2022/05/01 05:40:19;;;;;;;22.37;16.23;;;8.40;99.90;;;;;;5069936;28;20119;-45
2022/05/01 05:42:45;;;;;;;21.83;17.63;;;8.40;99.90;;;;;;5088069;28;20115;-44
2022/05/01 05:45:12;;;;;;;21.50;17.47;;;8.30;99.90;;;;;;5086523;28;20283;-44
2022/05/01 05:47:38;;;;;;;21.83;17.25;;;8.30;99.90;;;;;;5070212;28;20798;-44
2022/05/01 05:50:04;;;;;;;30.23;18.05;;;8.30;99.90;;;;;;5076500;28;20032;-46
2022/05/01 05:52:29;;;;;;;24.85;17.00;;;8.30;99.90;;;;;;5077366;28;20040;-45
2022/05/01 05:54:55;;;;;;;27.67;16.97;;;8.30;99.90;;;;;;5069456;28;20037;-47
2022/05/01 05:57:20;;;;;;;22.73;16.60;;;8.30;99.90;;;;;;5069513;28;20126;-46
2022/05/01 05:59:46;;;;;;;21.30;16.07;;;8.40;99.90;;;;;;5070914;28;20305;-46
2022/05/01 06:02:11;;;;;;;25.83;15.87;;;8.40;99.90;;;;;;5069422;28;20396;-47
2022/05/01 06:04:37;;;;;;;20.13;15.67;;;8.40;99.90;;;;;;5082190;28;20047;-46
2022/05/01 06:07:03;;;;;;;20.02;15.85;;;8.40;99.90;;;;;;5079019;28;20116;-47
2022/05/01 06:09:28;;;;;;;19.95;16.40;;;8.40;99.90;;;;;;5070844;28;20353;-46
2022/05/01 06:11:54;;;;;;;18.73;15.67;;;8.50;99.90;;;;;;5069493;28;20127;-47
2022/05/01 06:14:20;;;;;;;17.00;15.13;;;8.50;99.90;;;;;;5086413;28;20097;-47
2022/05/01 06:16:45;;;;;;;18.63;14.30;;;8.50;99.90;;;;;;5083328;28;20036;-47
2022/05/01 06:19:11;;;;;;;20.17;13.83;;;8.50;99.90;;;;;;5072413;28;20047;-46
2022/05/01 06:21:36;;;;;;;18.23;13.47;;;8.50;99.90;;;;;;5069316;28;20396;-46
2022/05/01 06:24:02;;;;;;;16.40;13.90;;;8.50;99.90;;;;;;5082215;28;20060;-47
2022/05/01 06:26:28;;;;;;;19.23;14.38;;;8.60;99.90;;;;;;5070590;28;20348;-48
2022/05/01 06:28:53;;;;;;;16.37;13.23;;;8.60;99.90;;;;;;5079198;28;20055;-48
2022/05/01 06:31:19;;;;;;;18.77;14.17;;;8.60;99.90;;;;;;5075106;28;20032;-46
2022/05/01 06:33:46;;;;;;;16.63;13.63;;;8.70;99.90;;;;;;5069869;28;20287;-46
2022/05/01 06:36:15;;;;;;;19.25;13.20;;;8.70;99.90;;;;;;5068689;28;20041;-47
2022/05/01 06:38:42;;;;;;;17.60;12.85;;;8.70;99.90;;;;;;5081283;28;20043;-47
2022/05/01 06:41:07;;;;;;;18.23;14.13;;;8.80;99.90;;;;;;5087992;28;20043;-48
2022/05/01 06:43:33;;;;;;;17.70;11.73;;;8.80;99.90;;;;;;5089814;28;20516;-47
2022/05/01 06:45:59;;;;;;;22.23;13.00;;;8.80;99.90;;;;;;5082161;28;20085;-46
2022/05/01 06:48:24;;;;;;;20.85;13.32;;;8.80;99.90;;;;;;5069258;28;20043;-47
2022/05/01 06:50:50;;;;;;;18.50;13.63;;;8.90;99.90;;;;;;5070174;28;20502;-47
2022/05/01 06:53:16;;;;;;;13.95;12.43;;;8.90;99.90;;;;;;5072638;28;20115;-46
2022/05/01 06:55:42;;;;;;;14.67;12.50;;;8.90;99.90;;;;;;5085480;28;20040;-46
2022/05/01 06:58:07;;;;;;;17.27;12.45;;;8.90;99.90;;;;;;5093543;28;20107;-46
2022/05/01 07:00:33;;;;;;;24.40;11.57;;;9.00;99.90;;;;;;5082225;28;20604;-47
2022/05/01 07:02:59;;;;;;;16.73;11.33;;;9.00;99.90;;;;;;5089137;28;20329;-46
2022/05/01 07:05:25;;;;;;;15.65;11.88;;;9.10;99.90;;;;;;5081734;28;20314;-46
2022/05/01 07:07:51;;;;;;;12.85;10.27;;;9.10;99.90;;;;;;5069798;28;20494;-47
2022/05/01 07:10:18;;;;;;;13.70;11.27;;;9.20;99.90;;;;;;5071317;28;20035;-48
2022/05/01 07:12:44;;;;;;;12.95;11.13;;;9.20;99.90;;;;;;5073413;28;20040;-47
2022/05/01 07:15:10;;;;;;;15.17;10.30;;;9.20;99.90;;;;;;5077297;28;20503;-47
2022/05/01 07:17:36;;;;;;;37.15;9.63;;;9.30;99.90;;;;;;5075997;28;20620;-47
2022/05/01 07:20:02;;;;;;;22.33;9.37;;;9.30;99.90;;;;;;5072039;28;20028;-47
2022/05/01 07:22:29;;;;;;;15.57;11.48;;;9.40;99.90;;;;;;5075532;28;20369;-47
2022/05/01 07:24:55;;;;;;;12.55;9.70;;;9.40;99.90;;;;;;5074143;28;20135;-49
2022/05/01 07:27:20;;;;;;;13.52;10.50;;;9.50;99.90;;;;;;5072640;28;20040;-46
2022/05/01 07:29:46;;;;;;;14.03;10.20;;;9.50;99.90;;;;;;5072438;28;20094;-46
2022/05/01 07:32:12;;;;;;;16.87;11.43;;;9.50;99.90;;;;;;5073081;28;20278;-47
2022/05/01 07:34:38;;;;;;;17.85;10.85;;;9.60;99.90;;;;;;5072332;28;20107;-47
2022/05/01 07:37:04;;;;;;;17.70;10.13;;;9.60;99.90;;;;;;5078237;28;20431;-46
2022/05/01 07:39:30;;;;;;;16.40;10.00;;;9.60;99.90;;;;;;5072510;28;20060;-48
2022/05/01 07:41:56;;;;;;;13.13;10.48;;;9.60;99.90;;;;;;5073438;28;20036;-47
2022/05/01 07:44:22;;;;;;;11.75;9.63;;;9.70;99.90;;;;;;5092631;28;20474;-47
2022/05/01 07:46:47;;;;;;;14.37;10.40;;;9.70;99.90;;;;;;5087975;28;20563;-47
2022/05/01 07:49:14;;;;;;;11.85;10.70;;;9.80;99.90;;;;;;5070356;28;20314;-48
2022/05/01 07:51:40;;;;;;;14.38;9.77;;;9.80;99.90;;;;;;5086050;28;20445;-48
2022/05/01 07:54:05;;;;;;;14.93;9.23;;;9.80;99.90;;;;;;5077012;28;20040;-47
2022/05/01 07:56:32;;;;;;;10.60;9.23;;;9.90;99.90;;;;;;5090929;28;20040;-47
2022/05/01 07:58:58;;;;;;;15.82;11.70;;;9.80;99.90;;;;;;5092544;28;20052;-48
2022/05/01 08:01:24;;;;;;;11.35;10.13;;;9.90;99.90;;;;;;5074337;28;20413;-46
2022/05/01 08:06:35;;;;;;;14.10;9.95;;;10.00;99.90;;;;;;5080742;28;20119;-47
2022/05/01 08:09:01;;;;;;;12.07;10.55;;;10.00;99.90;;;;;;5073837;28;20105;-48
2022/05/01 08:11:27;;;;;;;13.10;10.82;;;10.10;99.90;;;;;;5071560;28;20041;-48
2022/05/01 08:13:53;;;;;;;9.87;8.87;;;10.10;99.90;;;;;;5080198;28;20386;-48
2022/05/01 08:16:20;;;;;;;14.55;9.93;;;10.10;99.90;;;;;;5090056;28;20075;-47
2022/05/01 08:21:32;;;;;;;10.73;9.27;;;10.30;99.90;;;;;;5083296;28;20044;-47
2022/05/01 08:23:58;;;;;;;9.25;8.30;;;10.30;99.90;;;;;;5078619;28;20450;-47
2022/05/01 08:26:24;;;;;;;12.93;9.15;;;10.30;99.90;;;;;;5070852;28;20102;-46
2022/05/01 08:28:52;;;;;;;9.27;8.20;;;10.40;99.90;;;;;;5070759;28;20037;-46
2022/05/01 08:31:18;;;;;;;13.27;9.70;;;10.50;99.90;;;;;;5069938;28;20091;-47
2022/05/01 08:33:43;;;;;;;14.77;11.47;;;10.60;99.90;;;;;;5072526;28;20056;-49
2022/05/01 08:36:09;;;;;;;10.87;9.77;;;10.60;99.90;;;;;;5070802;28;20672;-48
2022/05/01 08:38:38;;;;;;;15.77;9.63;;;10.70;99.90;;;;;;5073763;28;20033;-49
2022/05/01 08:41:05;;;;;;;13.70;8.55;;;10.70;99.90;;;;;;5076068;28;20040;-47
2022/05/01 08:43:31;;;;;;;8.88;7.72;;;10.80;99.90;;;;;;5059927;28;20425;-47
2022/05/01 08:45:57;;;;;;;;;;;10.80;99.40;;;;;;5050408;28;20398;-47
2022/05/01 08:48:30;;;;;;;11.65;7.90;;;10.80;98.70;;;;;;5051462;28;19973;-48
2022/05/01 08:50:59;;;;;;;10.70;9.00;;;10.90;98.80;;;;;;5054393;28;20044;-47
2022/05/01 08:53:26;;;;;;;15.30;9.55;;;10.90;98.40;;;;;;5059480;28;20085;-49
2022/05/01 08:55:52;;;;;;;43.33;11.32;;;10.90;98.80;;;;;;5052731;28;20101;-48
2022/05/01 08:58:18;;;;;;;19.63;9.63;;;11.00;98.70;;;;;;5050190;28;20036;-47
2022/05/01 09:00:44;;;;;;;37.22;10.65;;;11.00;98.30;;;;;;5051499;28;20086;-49
2022/05/01 09:03:10;;;;;;;13.45;8.63;;;11.00;98.40;;;;;;5052081;28;20494;-48
2022/05/01 09:05:36;;;;;;;12.70;9.13;;;11.10;98.30;;;;;;5053672;28;20391;-48
2022/05/01 09:08:01;;;;;;;13.67;8.23;;;11.20;98.60;;;;;;5049557;28;20044;-47
2022/05/01 09:10:31;;;;;;;10.07;7.53;;;11.20;97.60;;;;;;5060525;28;20048;-48
2022/05/01 09:12:57;;;;;;;14.13;8.75;;;11.20;97.80;;;;;;5050197;28;20033;-49
2022/05/01 09:15:36;;;;;;;11.32;8.23;;;11.20;97.60;;;;;;5051520;28;20043;-47
2022/05/01 09:18:08;;;;;;;11.98;9.20;;;11.20;97.60;;;;;;5051191;28;20037;-47
2022/05/01 09:20:34;;;;;;;17.42;8.45;;;11.20;97.40;;;;;;5048517;28;20046;-47
2022/05/01 09:23:00;;;;;;;;;;;11.20;97.50;;;;;;5057514;28;20036;-47
2022/05/01 09:25:28;;;;;;;9.02;7.78;;;11.30;97.10;;;;;;5057900;28;20396;-47
2022/05/01 09:27:59;;;;;;;9.48;7.80;;;11.30;96.90;;;;;;5048222;28;20063;-47
2022/05/01 09:30:36;;;;;;;13.75;8.70;;;11.40;96.80;;;;;;5069408;28;20068;-47
2022/05/01 09:33:02;;;;;;;11.48;9.00;;;11.50;96.90;;;;;;5070542;28;20040;-47
2022/05/01 09:35:36;;;;;;;15.82;8.80;;;11.60;96.80;;;;;;5072853;28;20035;-48
2022/05/01 09:38:25;;;;;;;11.13;9.48;;;11.60;96.40;;;;;;5090521;28;20032;-49
2022/05/01 09:40:56;;;;;;;11.80;9.52;;;11.60;96.20;;;;;;5069691;28;20052;-47
2022/05/01 09:43:36;;;;;;;10.40;8.30;;;11.70;96.40;;;;;;5069032;28;20212;-46
2022/05/01 09:46:11;;;;;;;13.10;8.80;;;11.80;95.90;;;;;;5070225;28;20036;-46
2022/05/01 09:48:37;;;;;;;9.25;8.15;;;11.90;95.90;;;;;;5070127;28;20044;-47
2022/05/01 09:51:16;;;;;;;12.77;7.20;;;11.90;95.50;;;;;;5077101;28;20039;-47
2022/05/01 09:53:43;;;;;;;10.13;8.32;;;12.00;95.00;;;;;;5081960;28;20818;-47
2022/05/01 09:56:08;;;;;;;10.10;8.40;;;11.90;93.90;;;;;;5069977;28;20571;-48
2022/05/01 09:58:38;;;;;;;8.98;7.30;;;11.90;93.90;;;;;;5071691;28;20048;-47
2022/05/01 10:01:09;;;;;;;10.32;6.57;;;11.90;94.00;;;;;;5090319;28;20467;-47
2022/05/01 10:03:37;;;;;;;6.78;4.93;;;12.00;93.80;;;;;;5088093;28;20123;-46
2022/05/01 10:06:04;;;;;;;8.55;6.80;;;12.00;92.40;;;;;;5070463;28;20048;-47
2022/05/01 10:08:31;;;;;;;5.78;5.22;;;12.10;93.40;;;;;;5089300;28;20128;-47
2022/05/01 10:10:58;;;;;;;10.52;8.05;;;12.20;93.00;;;;;;5089582;28;20404;-48
2022/05/01 10:13:25;;;;;;;12.43;7.47;;;12.30;92.50;;;;;;5068733;28;20033;-47
2022/05/01 10:15:52;;;;;;;8.65;6.85;;;12.40;93.00;;;;;;5069436;28;20055;-47
2022/05/01 10:18:19;;;;;;;9.00;6.80;;;12.50;92.20;;;;;;5070693;28;20099;-46
2022/05/01 10:20:44;;;;;;;9.02;7.28;;;12.50;91.70;;;;;;5071133;28;20488;-48
2022/05/01 10:23:12;;;;;;;8.90;6.82;;;12.50;91.50;;;;;;5069296;28;20115;-47
2022/05/01 10:25:41;;;;;;;9.50;6.57;;;12.60;91.10;;;;;;5079061;28;20071;-47
2022/05/01 10:28:28;;;;;;;9.98;6.85;;;12.70;91.20;;;;;;5083341;28;20173;-47
2022/05/01 10:34:04;;;;;;;;;;;12.90;92.00;;;;;;5074272;28;20315;-46
2022/05/01 10:37:09;;;;;;;7.28;5.78;;;13.10;91.70;;;;;;5084233;28;19916;-47
2022/05/01 10:39:38;;;;;;;6.03;4.93;;;13.30;91.00;;;;;;5079349;28;20089;-46
2022/05/01 10:42:04;;;;;;;3.90;3.60;;;13.40;91.00;;;;;;5072691;28;20040;-46
2022/05/01 10:44:40;;;;;;;5.07;3.92;;;13.50;90.20;;;;;;5088775;28;20043;-47
2022/05/01 10:47:12;;;;;;;5.78;5.22;;;13.50;87.80;;;;;;5075402;28;20402;-47
2022/05/01 10:49:43;;;;;;;8.85;4.60;;;13.60;86.50;;;;;;5073689;28;20460;-47
2022/05/01 10:52:18;;;;;;;7.15;4.20;;;13.70;87.90;;;;;;5072532;28;20163;-46
2022/05/01 10:54:59;;;;;;;5.15;4.10;;;13.80;88.50;;;;;;5085707;28;20093;-47
2022/05/01 10:57:25;;;;;;;3.47;2.42;;;14.00;85.70;;;;;;5078521;28;20062;-48
2022/05/01 11:00:05;;;;;;;1.80;1.52;;;14.10;84.70;;;;;;5074496;28;20070;-47
2022/05/01 11:02:40;;;;;;;6.13;5.53;;;14.20;82.50;;;;;;5072585;28;20177;-47
2022/05/01 11:05:09;;;;;;;3.97;2.53;;;14.30;83.70;;;;;;5065432;28;20064;-47
2022/05/01 11:07:35;;;;;;;4.90;3.35;;;14.30;82.70;;;;;;5071450;28;20545;-47
2022/05/01 11:10:03;;;;;;;5.05;3.75;;;14.30;83.70;;;;;;5079106;28;20071;-47
2022/05/01 11:12:32;;;;;;;2.78;1.85;;;14.50;84.60;;;;;;5093014;28;20040;-47
2022/05/01 11:15:05;;;;;;;2.30;2.10;;;14.50;81.30;;;;;;5075284;28;20089;-47
2022/05/01 11:17:36;;;;;;;4.05;2.47;;;14.50;81.20;;;;;;5071787;28;20036;-48
2022/05/01 11:20:26;;;;;;;3.28;2.10;;;14.40;79.90;;;;;;5084859;28;20043;-47
2022/05/01 11:22:52;;;;;;;3.10;1.90;;;14.30;78.90;;;;;;5093161;28;20040;-47
2022/05/01 11:25:38;;;;;;;2.28;1.33;;;14.20;78.90;;;;;;5076843;28;20131;-47
2022/05/01 11:28:05;;;;;;;2.05;1.40;;;14.20;78.60;;;;;;5071026;28;20468;-47
2022/05/01 11:30:31;;;;;;;3.08;1.88;;;14.10;79.80;;;;;;5071776;28;20159;-46
2022/05/01 11:33:11;;;;;;;5.78;2.22;;;14.10;79.20;;;;;;5086074;28;20049;-47
2022/05/01 11:35:58;;;;;;;3.58;1.65;;;14.20;79.90;;;;;;5053013;28;20080;-48
2022/05/01 11:38:30;;;;;;;3.08;1.73;;;14.20;78.90;;;;;;5051122;28;20115;-47
2022/05/01 11:41:01;;;;;;;3.50;1.98;;;14.20;77.60;;;;;;5059504;28;20047;-47
2022/05/01 11:43:28;;;;;;;3.35;1.70;;;14.10;74.40;;;;;;5055657;28;20040;-47
2022/05/01 11:45:56;;;;;;;2.35;1.92;;;14.10;75.90;;;;;;5058024;28;20606;-47
2022/05/01 11:48:22;;;;;;;3.00;1.80;;;14.10;76.50;;;;;;5051618;28;20055;-47
2022/05/01 11:50:49;;;;;;;13.02;2.53;;;14.00;75.20;;;;;;5053857;28;20543;-49
2022/05/01 11:53:20;;;;;;;4.85;2.03;;;14.00;76.30;;;;;;5052839;28;20052;-47
2022/05/01 12:04:25;;;;;;;3.83;2.53;;;13.70;75.50;;;;;;5061431;28;20036;-47
2022/05/01 12:07:18;;;;;;;2.17;1.67;;;13.70;75.40;;;;;;5082233;28;20405;-47
2022/05/01 12:09:45;;;;;;;3.95;2.22;;;13.70;74.40;;;;;;5082754;28;20036;-47
2022/05/01 12:12:13;;;;;;;2.15;2.00;;;13.70;75.90;;;;;;5072958;28;20040;-47
2022/05/01 12:14:40;;;;;;;3.08;2.63;;;13.80;76.10;;;;;;5073149;28;20036;-48
2022/05/01 12:17:17;;;;;;;2.58;2.38;;;13.90;76.70;;;;;;5072025;28;20043;-47
2022/05/01 12:19:44;;;;;;;2.75;2.03;;;13.90;77.00;;;;;;5073469;28;20044;-47
2022/05/01 12:22:14;;;;;;;5.88;2.22;;;13.90;75.00;;;;;;5070415;28;20097;-48
2022/05/01 12:24:41;;;;;;;2.40;2.20;;;13.90;74.90;;;;;;5072053;28;20419;-47
2022/05/01 12:27:08;;;;;;;2.92;2.47;;;13.90;72.80;;;;;;5072954;28;20036;-47
2022/05/01 12:29:34;;;;;;;;;;;13.90;70.90;;;;;;5070589;28;20115;-47
2022/05/01 12:32:13;;;;;;;3.80;2.50;;;13.80;70.20;;;;;;5083840;28;20003;-47
2022/05/01 12:34:48;;;;;;;2.65;2.45;;;13.80;72.90;;;;;;5089486;28;20051;-47
2022/05/01 12:37:17;;;;;;;3.58;2.92;;;13.90;72.50;;;;;;5078045;28;20453;-47
2022/05/01 12:39:55;;;;;;;3.25;2.58;;;13.90;73.40;;;;;;5071508;28;20047;-49
2022/05/01 12:45:16;;;;;;;3.45;2.85;;;13.90;71.80;;;;;;5070223;28;20045;-47
2022/05/01 12:47:52;;;;;;;2.30;2.10;;;13.80;71.80;;;;;;5071930;28;20044;-48
2022/05/01 12:50:18;;;;;;;7.03;2.35;;;13.80;70.50;;;;;;5071425;28;20545;-47
2022/05/01 12:52:48;;;;;;;3.77;2.50;;;13.80;72.10;;;;;;5070500;28;20190;-47
2022/05/01 12:55:16;;;;;;;3.03;1.90;;;13.80;71.40;;;;;;5082690;28;20624;-47
2022/05/01 12:57:55;;;;;;;2.60;2.20;;;13.80;71.10;;;;;;5090855;28;20032;-48
2022/05/01 13:00:34;;;;;;;3.25;2.65;;;13.90;73.30;;;;;;5072974;28;20048;-47
2022/05/01 13:03:33;;;;;;;4.78;3.20;;;13.90;70.60;;;;;;5070641;28;20133;-47
2022/05/01 13:06:12;;;;;;;3.33;3.03;;;13.90;72.60;;;;;;5053249;28;20047;-47
2022/05/01 13:08:43;;;;;;;4.40;2.67;;;13.80;71.30;;;;;;5071871;28;20044;-47
2022/05/01 13:11:33;;;;;;;3.58;2.63;;;13.80;72.10;;;;;;5068649;28;20040;-47
2022/05/01 13:14:09;;;;;;;3.78;2.78;;;13.90;71.70;;;;;;5070862;28;20397;-48
2022/05/01 13:16:35;;;;;;;6.07;2.67;;;13.90;71.00;;;;;;5068830;28;20078;-47
2022/05/01 13:19:22;;;;;;;7.07;2.50;;;14.00;71.10;;;;;;5082433;28;20170;-48
2022/05/01 13:21:53;;;;;;;12.95;3.10;;;13.90;71.10;;;;;;5058128;28;20370;-47
2022/05/01 13:24:31;;;;;;;4.70;3.53;;;13.90;70.30;;;;;;5070129;28;20036;-47